Time;durP1;ratioP1;P1;durP2;ratioP2;P2;SDS_P1;SDS_P2;PMS_P1;PMS_P2;Temp;Humidity;BMP_temperature;BMP_pressure;BME280_temperature;BME280_humidity;BME280_pressure;Samples;Min_cycle;Max_cycle;Signal;HPM_P1;HPM_P2
2022/02/20 00:00:46;;;;;;;;;;;18.90;58.40;;;;;;5046348;28;1362;-68
2022/02/20 00:03:11;;;;;;;;;;;18.90;58.50;;;;;;5046885;28;1325;-69
2022/02/20 00:05:37;;;;;;;;;;;18.90;58.50;;;;;;5030999;28;1348;-69
2022/02/20 00:08:03;;;;;;;;;;;18.90;58.50;;;;;;5032233;28;1381;-70
2022/02/20 00:10:28;;;;;;;;;;;18.90;58.50;;;;;;5037410;28;1910;-68
2022/02/20 00:12:53;;;;;;;;;;;18.90;58.50;;;;;;5054850;28;1619;-70
2022/02/20 00:15:19;;;;;;;;;;;18.90;58.60;;;;;;5037385;28;1372;-70
2022/02/20 00:17:48;;;;;;;;;;;18.90;58.60;;;;;;5054074;28;1594;-68
2022/02/20 00:20:14;;;;;;;;;;;18.90;58.60;;;;;;5054307;28;1642;-70
2022/02/20 00:22:39;;;;;;;;;;;18.80;58.60;;;;;;5054800;28;1643;-69
2022/02/20 00:25:05;;;;;;;;;;;18.80;58.60;;;;;;5054779;28;1361;-69
2022/02/20 00:27:30;;;;;;;;;;;18.80;58.80;;;;;;5054789;28;1392;-70
2022/02/20 00:29:56;;;;;;;;;;;18.80;58.70;;;;;;5052796;28;1894;-69
2022/02/20 00:32:21;;;;;;;;;;;18.80;58.70;;;;;;5054202;28;1402;-69
2022/02/20 00:34:47;;;;;;;;;;;18.80;58.70;;;;;;5054816;28;1374;-70
2022/02/20 00:37:12;;;;;;;;;;;18.80;58.70;;;;;;5054779;28;1662;-70
2022/02/20 00:39:38;;;;;;;;;;;18.80;58.70;;;;;;5052733;28;1677;-69
2022/02/20 00:42:03;;;;;;;;;;;18.80;58.80;;;;;;5053263;28;1734;-69
2022/02/20 00:44:29;;;;;;;;;;;18.80;58.80;;;;;;5054460;28;1370;-70
2022/02/20 00:46:54;;;;;;;;;;;18.80;58.80;;;;;;5054151;28;1627;-69
2022/02/20 00:49:20;;;;;;;;;;;18.80;58.80;;;;;;5053749;28;1358;-69
2022/02/20 00:51:45;;;;;;;;;;;18.80;58.80;;;;;;5054063;28;1958;-70
2022/02/20 00:54:11;;;;;;;;;;;18.80;58.80;;;;;;5053304;28;1598;-71
2022/02/20 00:56:36;;;;;;;;;;;18.80;58.80;;;;;;5054216;28;1419;-69
2022/02/20 00:59:04;;;;;;;;;;;18.70;58.80;;;;;;5053543;28;1352;-69
2022/02/20 01:01:30;;;;;;;;;;;18.70;58.80;;;;;;5052320;28;1731;-71
2022/02/20 01:03:55;;;;;;;;;;;18.70;58.80;;;;;;5054286;28;1330;-71
2022/02/20 01:06:21;;;;;;;;;;;18.70;58.80;;;;;;5052874;28;1705;-71
2022/02/20 01:08:46;;;;;;;;;;;18.80;58.90;;;;;;5051913;28;1428;-70
2022/02/20 01:11:12;;;;;;;;;;;18.70;58.90;;;;;;5053692;28;1906;-71
2022/02/20 01:13:37;;;;;;;;;;;18.70;58.90;;;;;;5054137;28;1390;-71
2022/02/20 01:16:03;;;;;;;;;;;18.70;58.90;;;;;;5053770;28;1351;-70
2022/02/20 01:18:28;;;;;;;;;;;18.70;58.90;;;;;;5051777;28;1482;-72
2022/02/20 01:20:54;;;;;;;;;;;18.70;58.90;;;;;;5053744;28;1671;-72
2022/02/20 01:23:19;;;;;;;;;;;18.70;58.90;;;;;;5053583;28;1379;-70
2022/02/20 01:25:44;;;;;;;;;;;18.70;59.00;;;;;;5053635;28;1461;-72
2022/02/20 01:28:10;;;;;;;;;;;18.70;59.00;;;;;;5053336;28;1361;-69
2022/02/20 01:30:35;;;;;;;;;;;18.70;59.00;;;;;;5051715;28;1926;-69
2022/02/20 01:33:01;;;;;;;;;;;18.70;59.00;;;;;;5053601;28;1567;-70
2022/02/20 01:35:26;;;;;;;;;;;18.70;59.00;;;;;;5053379;28;1728;-69
2022/02/20 01:37:52;;;;;;;;;;;18.70;59.00;;;;;;5035199;28;1421;-69
2022/02/20 01:40:17;;;;;;;;;;;18.70;59.10;;;;;;5035147;28;1643;-70
2022/02/20 01:42:42;;;;;;;;;;;18.70;59.10;;;;;;5051791;28;1602;-70
2022/02/20 01:45:10;;;;;;;;;;;18.60;59.00;;;;;;5053349;28;1636;-68
2022/02/20 01:47:35;;;;;;;;;;;18.60;59.00;;;;;;5035494;28;1701;-69
2022/02/20 01:50:01;;;;;;;;;;;18.70;59.10;;;;;;5034736;28;1951;-70
2022/02/20 01:52:27;;;;;;;;;;;18.60;59.10;;;;;;5052026;28;1360;-69
2022/02/20 01:54:52;;;;;;;;;;;18.60;59.00;;;;;;5053431;28;1382;-69
2022/02/20 01:57:18;;;;;;;;;;;18.60;59.10;;;;;;5052038;28;1609;-70
2022/02/20 01:59:43;;;;;;;;;;;18.70;59.10;;;;;;5035052;28;1258;-69
2022/02/20 02:02:09;;;;;;;;;;;18.70;59.10;;;;;;5052821;28;1381;-70
2022/02/20 02:04:35;;;;;;;;;;;18.60;59.10;;;;;;5053021;28;1398;-69
2022/02/20 02:07:00;;;;;;;;;;;18.60;59.10;;;;;;5035211;28;1405;-69
2022/02/20 02:09:25;;;;;;;;;;;18.60;59.10;;;;;;5053358;28;1363;-70
2022/02/20 02:11:51;;;;;;;;;;;18.60;59.20;;;;;;5052302;28;1965;-69
2022/02/20 02:14:16;;;;;;;;;;;18.60;59.10;;;;;;5052710;28;1399;-69
2022/02/20 02:16:42;;;;;;;;;;;18.60;59.10;;;;;;5053045;28;1275;-69
2022/02/20 02:19:07;;;;;;;;;;;18.60;59.10;;;;;;5051938;28;1435;-71
2022/02/20 02:21:33;;;;;;;;;;;18.60;59.10;;;;;;5052765;28;1142;-71
2022/02/20 02:23:58;;;;;;;;;;;18.60;59.20;;;;;;5052045;28;1250;-71
2022/02/20 02:26:24;;;;;;;;;;;18.60;59.20;;;;;;5051116;28;1354;-71
2022/02/20 02:28:49;;;;;;;;;;;18.60;59.20;;;;;;5051835;28;1355;-71
2022/02/20 02:31:15;;;;;;;;;;;18.60;59.20;;;;;;5034512;28;1957;-70
2022/02/20 02:33:40;;;;;;;;;;;18.60;59.20;;;;;;5051624;28;1426;-70
2022/02/20 02:36:06;;;;;;;;;;;18.60;59.20;;;;;;5054358;28;1269;-71
2022/02/20 02:38:32;;;;;;;;;;;18.60;59.20;;;;;;5055295;28;1409;-70
2022/02/20 02:40:59;;;;;;;;;;;18.60;59.20;;;;;;5053241;28;1072;-70
2022/02/20 02:43:25;;;;;;;;;;;18.60;59.20;;;;;;5052802;28;1666;-71
2022/02/20 02:45:50;;;;;;;;;;;18.60;59.30;;;;;;5052972;28;1075;-70
2022/02/20 02:48:16;;;;;;;;;;;18.60;59.30;;;;;;5052243;28;1253;-68
2022/02/20 02:50:41;;;;;;;;;;;18.60;59.30;;;;;;5034225;28;1891;-68
2022/02/20 02:53:07;;;;;;;;;;;18.60;59.30;;;;;;5034542;28;1078;-68
2022/02/20 02:55:33;;;;;;;;;;;18.50;59.20;;;;;;5034795;28;1280;-68
2022/02/20 02:57:58;;;;;;;;;;;18.60;59.30;;;;;;5052250;28;1409;-68
2022/02/20 03:00:24;;;;;;;;;;;18.60;59.30;;;;;;5051991;28;1064;-68
2022/02/20 03:02:49;;;;;;;;;;;18.50;59.30;;;;;;5052057;28;1296;-68
2022/02/20 03:05:14;;;;;;;;;;;18.60;59.30;;;;;;5052412;28;1435;-69
2022/02/20 03:07:42;;;;;;;;;;;18.50;59.30;;;;;;5052627;28;1294;-69
2022/02/20 03:10:07;;;;;;;;;;;18.50;59.30;;;;;;5052030;28;2036;-69
2022/02/20 03:12:33;;;;;;;;;;;18.50;59.30;;;;;;5051920;28;1287;-70
2022/02/20 03:14:58;;;;;;;;;;;18.50;59.30;;;;;;5050600;28;1301;-70
2022/02/20 03:17:23;;;;;;;;;;;18.50;59.30;;;;;;5052207;28;1383;-71
2022/02/20 03:19:49;;;;;;;;;;;18.50;59.30;;;;;;5033898;28;1458;-70
2022/02/20 03:22:15;;;;;;;;;;;18.50;59.30;;;;;;5051792;28;1021;-71
2022/02/20 03:24:41;;;;;;;;;;;18.50;59.30;;;;;;5052309;28;1340;-70
2022/02/20 03:27:06;;;;;;;;;;;18.50;59.30;;;;;;5051674;28;1142;-71
2022/02/20 03:29:32;;;;;;;;;;;18.50;59.40;;;;;;5051837;28;1290;-70
2022/02/20 03:31:57;;;;;;;;;;;18.50;59.40;;;;;;5052940;28;1969;-69
2022/02/20 03:34:23;;;;;;;;;;;18.50;59.40;;;;;;5051185;28;1441;-69
2022/02/20 03:36:49;;;;;;;;;;;18.50;59.40;;;;;;5052285;28;1387;-70
2022/02/20 03:39:18;;;;;;;;;;;18.50;59.40;;;;;;5051319;28;1558;-70
2022/02/20 03:41:43;;;;;;;;;;;18.50;59.40;;;;;;5051234;28;1416;-70
2022/02/20 03:44:08;;;;;;;;;;;18.50;59.40;;;;;;5050662;28;1055;-69
2022/02/20 03:46:35;;;;;;;;;;;18.50;59.40;;;;;;5052104;28;1389;-70
2022/02/20 03:49:00;;;;;;;;;;;18.50;59.40;;;;;;5051634;28;1334;-70
2022/02/20 03:51:26;;;;;;;;;;;18.50;59.40;;;;;;5053323;28;1902;-68
2022/02/20 03:53:51;;;;;;;;;;;18.50;60.00;;;;;;5058102;28;1382;-68
2022/02/20 03:56:16;;;;;;;;;;;18.50;59.40;;;;;;5058446;28;1378;-69
2022/02/20 03:58:42;;;;;;;;;;;18.50;59.50;;;;;;5054671;28;1314;-69
2022/02/20 04:01:07;;;;;;;;;;;18.50;59.40;;;;;;5054018;28;1326;-69
2022/02/20 04:03:33;;;;;;;;;;;18.50;59.50;;;;;;5036969;28;1323;-69
2022/02/20 04:05:58;;;;;;;;;;;18.50;59.40;;;;;;5055485;28;1271;-69
2022/02/20 04:08:24;;;;;;;;;;;18.50;59.50;;;;;;5053236;28;1325;-69
2022/02/20 04:10:49;;;;;;;;;;;18.50;59.50;;;;;;5054790;28;1901;-69
2022/02/20 04:13:15;;;;;;;;;;;18.50;59.50;;;;;;5054941;28;1298;-69
2022/02/20 04:15:40;;;;;;;;;;;18.50;59.50;;;;;;5055017;28;1307;-69
2022/02/20 04:18:05;;;;;;;;;;;18.50;59.50;;;;;;5054741;28;1355;-69
2022/02/20 04:20:31;;;;;;;;;;;18.50;59.50;;;;;;5054184;28;1333;-69
2022/02/20 04:22:56;;;;;;;;;;;18.50;59.50;;;;;;5054911;28;1680;-69
2022/02/20 04:25:22;;;;;;;;;;;18.50;59.50;;;;;;5054900;28;1146;-69
2022/02/20 04:27:47;;;;;;;;;;;18.40;59.40;;;;;;5054356;28;1339;-69
2022/02/20 04:30:16;;;;;;;;;;;18.40;59.50;;;;;;5053938;28;1894;-69
2022/02/20 04:32:42;;;;;;;;;;;18.40;59.50;;;;;;5054491;28;1350;-69
2022/02/20 04:35:07;;;;;;;;;;;18.40;59.50;;;;;;5053307;28;1075;-70
2022/02/20 04:37:33;;;;;;;;;;;18.50;59.60;;;;;;5037106;28;1412;-70
2022/02/20 04:40:00;;;;;;;;;;;18.40;59.50;;;;;;5037785;28;1472;-70
2022/02/20 04:42:25;;;;;;;;;;;18.50;59.50;;;;;;5054187;28;1892;-69
2022/02/20 04:44:51;;;;;;;;;;;18.50;59.40;;;;;;5054571;28;1330;-70
2022/02/20 04:47:16;;;;;;;;;;;18.50;59.40;;;;;;5037411;28;1182;-69
2022/02/20 04:49:42;;;;;;;;;;;18.50;59.30;;;;;;5053947;28;1279;-69
2022/02/20 04:52:07;;;;;;;;;;;18.50;59.20;;;;;;5055252;28;2040;-68
2022/02/20 04:54:33;;;;;;;;;;;18.60;59.20;;;;;;5055037;28;1385;-70
2022/02/20 04:56:58;;;;;;;;;;;18.60;59.10;;;;;;5053824;28;1067;-70
2022/02/20 04:59:23;;;;;;;;;;;18.60;58.90;;;;;;5053775;28;1266;-70
2022/02/20 05:01:49;;;;;;;;;;;18.70;58.90;;;;;;5054065;28;1354;-70
2022/02/20 05:04:14;;;;;;;;;;;18.70;58.80;;;;;;5052714;28;1285;-70
2022/02/20 05:06:40;;;;;;;;;;;18.70;58.70;;;;;;5053791;28;1309;-69
2022/02/20 05:09:05;;;;;;;;;;;18.80;58.60;;;;;;5054242;28;1327;-69
2022/02/20 05:11:31;;;;;;;;;;;18.80;58.60;;;;;;5035690;28;1905;-69
2022/02/20 05:13:58;;;;;;;;;;;18.80;58.50;;;;;;5054145;28;1267;-69
2022/02/20 05:16:24;;;;;;;;;;;18.80;58.40;;;;;;5053881;28;1320;-70
2022/02/20 05:18:49;;;;;;;;;;;18.90;58.40;;;;;;5053377;28;1195;-70
2022/02/20 05:21:14;;;;;;;;;;;18.90;58.30;;;;;;5046449;28;1113;-69
2022/02/20 05:23:40;;;;;;;;;;;18.90;58.30;;;;;;5046121;28;1219;-69
2022/02/20 05:26:05;;;;;;;;;;;18.90;58.20;;;;;;5049105;28;1235;-69
2022/02/20 05:28:31;;;;;;;;;;;18.90;58.20;;;;;;5027057;28;1343;-70
2022/02/20 05:30:56;;;;;;;;;;;18.90;58.10;;;;;;5027257;28;1965;-68
2022/02/20 05:33:22;;;;;;;;;;;18.90;58.10;;;;;;5045910;28;1156;-69
2022/02/20 05:35:47;;;;;;;;;;;18.90;58.10;;;;;;5028604;28;1843;-69
2022/02/20 05:38:12;;;;;;;;;;;19.00;58.10;;;;;;5029126;28;1922;-71
2022/02/20 05:40:38;;;;;;;;;;;19.00;58.10;;;;;;5044994;28;1045;-68
2022/02/20 05:43:04;;;;;;;;;;;19.00;58.00;;;;;;5026656;28;1211;-68
2022/02/20 05:45:29;;;;;;;;;;;19.00;58.00;;;;;;5027480;28;1196;-70
2022/02/20 05:47:55;;;;;;;;;;;19.00;58.00;;;;;;5027999;28;1277;-68
2022/02/20 05:50:20;;;;;;;;;;;19.00;58.00;;;;;;5048126;28;1890;-69
2022/02/20 05:52:46;;;;;;;;;;;19.00;57.90;;;;;;5028819;28;1243;-70
2022/02/20 05:55:11;;;;;;;;;;;19.00;57.90;;;;;;5045393;28;1266;-67
2022/02/20 05:57:44;;;;;;;;;;;19.00;57.90;;;;;;5044589;28;1324;-68
2022/02/20 06:00:09;;;;;;;;;;;19.00;58.00;;;;;;5048081;28;1242;-68
2022/02/20 06:02:35;;;;;;;;;;;19.00;57.90;;;;;;5052361;28;1199;-68
2022/02/20 06:05:01;;;;;;;;;;;19.00;57.90;;;;;;5052448;28;1318;-68
2022/02/20 06:07:26;;;;;;;;;;;19.00;57.90;;;;;;5052066;28;1333;-68
2022/02/20 06:09:51;;;;;;;;;;;19.00;57.90;;;;;;5051936;28;1084;-68
2022/02/20 06:12:17;;;;;;;;;;;19.00;57.90;;;;;;5052682;28;1910;-69
2022/02/20 06:14:42;;;;;;;;;;;19.00;57.90;;;;;;5051099;28;1062;-68
2022/02/20 06:17:08;;;;;;;;;;;19.00;57.90;;;;;;5052666;28;1601;-68
2022/02/20 06:19:33;;;;;;;;;;;19.00;57.90;;;;;;5051787;28;1400;-69
2022/02/20 06:21:58;;;;;;;;;;;19.00;57.80;;;;;;5052488;28;1361;-68
2022/02/20 06:24:24;;;;;;;;;;;19.00;57.80;;;;;;5050789;28;1326;-68
2022/02/20 06:26:49;;;;;;;;;;;19.00;57.80;;;;;;5034621;28;1321;-68
2022/02/20 06:29:15;;;;;;;;;;;19.10;57.90;;;;;;5051559;28;1259;-68
2022/02/20 06:31:41;;;;;;;;;;;19.10;58.40;;;;;;5034294;28;1973;-68
2022/02/20 06:34:06;;;;;;;;;;;19.10;57.80;;;;;;5051873;28;1330;-68
2022/02/20 06:36:32;;;;;;;;;;;19.10;57.80;;;;;;5052184;28;1287;-69
2022/02/20 06:38:57;;;;;;;;;;;19.10;57.80;;;;;;5049962;28;1493;-69
2022/02/20 06:41:23;;;;;;;;;;;19.10;57.80;;;;;;5044859;28;1325;-69
2022/02/20 06:43:48;;;;;;;;;;;19.10;57.80;;;;;;5039021;28;1398;-69
2022/02/20 06:46:13;;;;;;;;;;;19.10;57.80;;;;;;5034855;28;985;-68
2022/02/20 06:48:39;;;;;;;;;;;19.10;57.80;;;;;;5051464;28;1269;-68
2022/02/20 06:51:04;;;;;;;;;;;19.10;57.80;;;;;;5046828;28;1981;-69
2022/02/20 06:53:30;;;;;;;;;;;19.10;57.80;;;;;;5044431;28;1255;-68
2022/02/20 06:55:55;;;;;;;;;;;19.10;57.80;;;;;;5027069;28;1208;-68
2022/02/20 06:58:21;;;;;;;;;;;19.10;57.80;;;;;;5027782;28;1477;-68
2022/02/20 07:00:46;;;;;;;;;;;19.10;57.80;;;;;;5046789;28;1208;-68
2022/02/20 07:03:11;;;;;;;;;;;19.10;58.40;;;;;;5043784;28;1216;-68
2022/02/20 07:05:37;;;;;;;;;;;19.10;57.80;;;;;;5026069;28;1295;-69
2022/02/20 07:08:02;;;;;;;;;;;19.10;57.70;;;;;;5026986;28;1346;-67
2022/02/20 07:10:28;;;;;;;;;;;19.10;57.80;;;;;;5046862;28;1969;-68
2022/02/20 07:12:53;;;;;;;;;;;19.10;57.70;;;;;;5046170;28;1250;-69
2022/02/20 07:15:19;;;;;;;;;;;19.10;57.70;;;;;;5027658;28;1325;-68
2022/02/20 07:17:44;;;;;;;;;;;19.10;57.70;;;;;;5028333;28;1387;-67
2022/02/20 07:20:10;;;;;;;;;;;19.10;57.70;;;;;;5043814;28;1235;-68
2022/02/20 07:22:35;;;;;;;;;;;19.10;57.80;;;;;;5006810;28;1277;-70
2022/02/20 07:25:01;;;;;;;;;;;19.10;57.80;;;;;;5048952;28;1230;-68
2022/02/20 07:27:26;;;;;;;;;;;19.10;57.80;;;;;;5019201;28;1546;-68
2022/02/20 07:29:52;;;;;;;;;;;19.10;57.80;;;;;;5037329;28;1266;-69
2022/02/20 07:32:17;;;;;;;;;;;19.10;57.70;;;;;;5036922;28;1902;-69
2022/02/20 07:34:42;;;;;;;;;;;19.10;57.70;;;;;;5055104;28;1309;-69
2022/02/20 07:37:08;;;;;;;;;;;19.10;57.70;;;;;;5037859;28;1362;-68
2022/02/20 07:39:33;;;;;;;;;;;19.10;57.80;;;;;;5042046;28;1811;-67
2022/02/20 07:41:59;;;;;;;;;;;19.10;57.80;;;;;;5035258;28;1057;-65
2022/02/20 07:44:25;;;;;;;;;;;19.10;57.80;;;;;;5050346;28;1094;-65
2022/02/20 07:46:50;;;;;;;;;;;19.10;57.70;;;;;;5054182;28;1304;-67
2022/02/20 07:49:16;;;;;;;;;;;19.10;57.70;;;;;;5053494;28;1309;-66
2022/02/20 07:51:41;;;;;;;;;;;19.10;57.80;;;;;;5019974;28;1959;-68
2022/02/20 07:54:06;;;;;;;;;;;19.10;57.70;;;;;;5055168;28;1350;-69
2022/02/20 07:56:32;;;;;;;;;;;19.10;57.70;;;;;;5054185;28;1311;-68
2022/02/20 07:58:57;;;;;;;;;;;19.20;57.60;;;;;;5057499;22;2035;-71
2022/02/20 08:01:23;;;;;;;;;;;19.30;57.50;;;;;;5047092;28;1914;-72
2022/02/20 08:03:49;;;;;;;;;;;19.40;57.40;;;;;;5055637;28;1319;-71
2022/02/20 08:06:14;;;;;;;;;;;19.50;57.30;;;;;;5055703;28;1310;-71
2022/02/20 08:08:40;;;;;;;;;;;19.60;57.10;;;;;;5054166;28;1460;-72
2022/02/20 08:11:05;;;;;;;;;;;19.70;56.90;;;;;;5040090;28;1977;-73
2022/02/20 08:13:31;;;;;;;;;;;19.90;56.70;;;;;;5034389;28;827;-71
2022/02/20 08:15:57;;;;;;;;;;;20.00;56.40;;;;;;5048977;28;1059;-72
2022/02/20 08:18:23;;;;;;;;;;;20.00;56.10;;;;;;5041483;28;1245;-71
2022/02/20 08:20:48;;;;;;;;;;;20.20;55.90;;;;;;5023702;28;1159;-71
2022/02/20 08:23:14;;;;;;;;;;;20.30;55.60;;;;;;5034297;28;811;-72
2022/02/20 08:25:40;;;;;;;;;;;20.30;55.40;;;;;;5035579;28;808;-71
2022/02/20 08:28:06;;;;;;;;;;;20.40;55.20;;;;;;5034270;28;1040;-72
2022/02/20 08:30:32;;;;;;;;;;;20.50;55.10;;;;;;5035124;28;1902;-71
2022/02/20 08:32:57;;;;;;;;;;;20.50;55.30;;;;;;5028814;28;1198;-71
2022/02/20 08:35:22;;;;;;;;;;;20.50;54.80;;;;;;5027867;28;1199;-70
2022/02/20 08:37:48;;;;;;;;;;;20.60;54.80;;;;;;5010149;28;1152;-71
2022/02/20 08:40:14;;;;;;;;;;;20.60;54.70;;;;;;5026286;28;1376;-70
2022/02/20 08:42:40;;;;;;;;;;;20.60;54.70;;;;;;5030766;28;1259;-69
2022/02/20 08:45:05;;;;;;;;;;;20.60;54.70;;;;;;5030368;28;1387;-71
2022/02/20 08:47:31;;;;;;;;;;;20.60;54.70;;;;;;5028612;28;1231;-71
2022/02/20 08:49:56;;;;;;;;;;;20.60;54.70;;;;;;5026943;28;1255;-70
2022/02/20 08:52:22;;;;;;;;;;;20.70;54.70;;;;;;5030884;28;1902;-71
2022/02/20 08:54:49;;;;;;;;;;;20.60;54.60;;;;;;5026491;28;1370;-70
2022/02/20 08:57:14;;;;;;;;;;;20.70;55.30;;;;;;5027451;28;1437;-69
2022/02/20 08:59:40;;;;;;;;;;;20.70;54.70;;;;;;5025631;28;1587;-69
2022/02/20 09:02:05;;;;;;;;;;;20.70;54.70;;;;;;5029680;28;1204;-71
2022/02/20 09:04:31;;;;;;;;;;;20.60;54.70;;;;;;5009284;28;1391;-70
2022/02/20 09:06:56;;;;;;;;;;;20.60;54.60;;;;;;5027651;28;1136;-70
2022/02/20 09:09:22;;;;;;;;;;;20.60;54.60;;;;;;5025860;28;1283;-70
2022/02/20 09:11:47;;;;;;;;;;;20.60;54.70;;;;;;5029300;28;1965;-71
2022/02/20 09:14:14;;;;;;;;;;;20.60;54.70;;;;;;5046499;28;1138;-71
2022/02/20 09:16:39;;;;;;;;;;;20.60;54.80;;;;;;5034234;28;1651;-71
2022/02/20 09:19:06;;;;;;;;;;;20.60;54.90;;;;;;5033844;28;1263;-71
2022/02/20 09:21:31;;;;;;;;;;;20.60;54.90;;;;;;5041442;28;1362;-71
2022/02/20 09:23:57;;;;;;;;;;;20.50;55.00;;;;;;5040611;28;1439;-71
2022/02/20 09:26:23;;;;;;;;;;;20.50;55.00;;;;;;5045286;28;868;-71
2022/02/20 09:28:48;;;;;;;;;;;20.50;55.00;;;;;;5033638;28;1363;-71
2022/02/20 09:31:13;;;;;;;;;;;20.50;55.10;;;;;;5032683;28;1943;-71
2022/02/20 09:33:39;;;;;;;;;;;20.50;55.10;;;;;;5033902;28;1545;-71
2022/02/20 09:36:08;;;;;;;;;;;20.50;55.10;;;;;;5045555;28;891;-71
2022/02/20 09:38:36;;;;;;;;;;;20.40;55.20;;;;;;5032193;28;1291;-70
2022/02/20 09:41:04;;;;;;;;;;;20.40;55.20;;;;;;5033692;28;995;-71
2022/02/20 09:43:29;;;;;;;;;;;20.40;55.30;;;;;;5034582;28;1347;-71
2022/02/20 09:45:54;;;;;;;;;;;20.40;55.30;;;;;;5028193;28;1452;-71
2022/02/20 09:48:20;;;;;;;;;;;20.40;55.30;;;;;;5033143;28;1266;-72
2022/02/20 09:50:45;;;;;;;;;;;20.40;55.40;;;;;;5032424;28;1894;-71
2022/02/20 09:53:11;;;;;;;;;;;20.40;55.40;;;;;;5033389;28;823;-71
2022/02/20 09:55:37;;;;;;;;;;;20.30;55.40;;;;;;5022766;28;1452;-71
2022/02/20 09:58:02;;;;;;;;;;;20.30;55.50;;;;;;5039483;28;1408;-71
2022/02/20 10:00:27;;;;;;;;;;;20.30;55.50;;;;;;5032848;28;1163;-72
2022/02/20 10:02:53;;;;;;;;;;;20.30;55.50;;;;;;5046465;28;1362;-71
2022/02/20 10:05:22;;;;;;;;;;;20.30;55.60;;;;;;5045264;28;1059;-71
2022/02/20 10:07:48;;;;;;;;;;;20.30;55.60;;;;;;5046244;28;1094;-71
2022/02/20 10:10:13;;;;;;;;;;;20.30;55.60;;;;;;5028682;28;1906;-71
2022/02/20 10:12:38;;;;;;;;;;;20.20;55.60;;;;;;5026821;28;1084;-71
2022/02/20 10:15:05;;;;;;;;;;;20.20;55.70;;;;;;5025196;28;1223;-71
2022/02/20 10:17:31;;;;;;;;;;;20.20;55.70;;;;;;5038290;28;950;-71
2022/02/20 10:19:57;;;;;;;;;;;20.20;55.80;;;;;;5032750;28;1211;-72
2022/02/20 10:22:26;;;;;;;;;;;20.20;55.80;;;;;;5033033;28;819;-71
2022/02/20 10:25:04;;;;;;;;;;;20.20;55.80;;;;;;5028213;28;1105;-72
2022/02/20 10:27:30;;;;;;;;;;;20.20;55.90;;;;;;5046042;28;976;-71
2022/02/20 10:30:19;;;;;;;;;;;20.20;55.90;;;;;;5032583;28;1337;-71
2022/02/20 10:32:44;;;;;;;;;;;20.20;55.90;;;;;;5026422;28;1679;-71
2022/02/20 10:35:14;;;;;;;;;;;20.10;55.90;;;;;;5032034;28;1171;-72
2022/02/20 10:37:39;;;;;;;;;;;20.10;56.00;;;;;;5031691;28;850;-73
2022/02/20 10:40:27;;;;;;;;;;;20.10;56.00;;;;;;5032202;28;1208;-71
2022/02/20 10:42:53;;;;;;;;;;;20.10;56.10;;;;;;5031383;28;1177;-71
2022/02/20 10:45:25;;;;;;;;;;;20.10;56.10;;;;;;5035636;28;1154;-71
2022/02/20 10:47:51;;;;;;;;;;;20.10;56.10;;;;;;5041331;28;1060;-71
2022/02/20 10:50:17;;;;;;;;;;;20.00;56.10;;;;;;5035048;28;1977;-71
2022/02/20 10:52:43;;;;;;;;;;;20.10;56.20;;;;;;5026616;28;1108;-71
2022/02/20 10:55:11;;;;;;;;;;;20.00;56.10;;;;;;5026562;28;2379;-71
2022/02/20 10:57:40;;;;;;;;;;;20.00;56.20;;;;;;5031244;28;910;-72
2022/02/20 11:00:09;;;;;;;;;;;20.00;56.20;;;;;;5035118;28;1376;-72
2022/02/20 11:02:34;;;;;;;;;;;20.00;56.20;;;;;;5044193;28;1076;-72
2022/02/20 11:05:00;;;;;;;;;;;20.00;56.20;;;;;;5035440;28;962;-71
2022/02/20 11:07:25;;;;;;;;;;;20.00;56.20;;;;;;5035424;28;1090;-72
2022/02/20 11:09:51;;;;;;;;;;;20.00;56.30;;;;;;5048121;28;1359;-72
2022/02/20 11:12:16;;;;;;;;;;;20.00;56.30;;;;;;5036430;28;1898;-72
2022/02/20 11:14:43;;;;;;;;;;;19.90;56.30;;;;;;5048410;28;1202;-71
2022/02/20 11:17:08;;;;;;;;;;;19.90;56.30;;;;;;5046168;28;1383;-72
2022/02/20 11:19:35;;;;;;;;;;;19.90;56.30;;;;;;5042340;28;1373;-72
2022/02/20 11:22:01;;;;;;;;;;;19.90;56.30;;;;;;5036274;28;1089;-72
2022/02/20 11:24:27;;;;;;;;;;;20.00;56.30;;;;;;5034918;28;926;-72
2022/02/20 11:26:52;;;;;;;;;;;20.00;56.30;;;;;;5046210;28;1452;-72
2022/02/20 11:29:18;;;;;;;;;;;20.00;56.30;;;;;;5036764;28;1273;-72
2022/02/20 11:31:44;;;;;;;;;;;20.00;56.20;;;;;;5034150;28;2020;-71
2022/02/20 11:34:09;;;;;;;;;;;20.00;56.10;;;;;;5026158;28;1930;-70
2022/02/20 11:36:35;;;;;;;;;;;20.10;56.10;;;;;;5034755;28;1538;-70
2022/02/20 11:39:10;;;;;;;;;;;20.10;56.10;;;;;;5033433;28;1605;-70
2022/02/20 11:41:36;;;;;;;;;;;20.10;56.00;;;;;;5035732;28;1416;-72
2022/02/20 11:44:12;;;;;;;;;;;20.10;56.00;;;;;;5034597;28;1382;-72
2022/02/20 11:46:48;;;;;;;;;;;20.10;55.90;;;;;;5034557;28;1395;-72
2022/02/20 11:49:19;;;;;;;;;;;20.20;55.90;;;;;;5035287;28;1594;-72
2022/02/20 11:52:14;;;;;;;;;;;20.20;55.90;;;;;;5034585;28;1886;-72
2022/02/20 11:54:40;;;;;;;;;;;20.20;55.90;;;;;;5030673;28;1555;-72
2022/02/20 11:57:22;;;;;;;;;;;20.20;55.80;;;;;;5034437;28;1640;-74
2022/02/20 12:00:03;;;;;;;;;;;20.20;55.80;;;;;;5035341;28;1270;-74
2022/02/20 12:02:32;;;;;;;;;;;20.20;55.80;;;;;;5035415;28;1219;-74
2022/02/20 12:04:57;;;;;;;;;;;20.20;55.80;;;;;;5014825;28;1176;-74
2022/02/20 12:07:38;;;;;;;;;;;20.20;55.80;;;;;;5015997;28;1176;-74
2022/02/20 12:10:27;;;;;;;;;;;20.20;55.80;;;;;;5029003;28;2289;-75
2022/02/20 12:12:54;;;;;;;;;;;20.20;55.80;;;;;;5038935;28;1033;-74
2022/02/20 12:15:35;;;;;;;;;;;20.20;55.80;;;;;;5035635;28;1036;-74
2022/02/20 12:18:09;;;;;;;;;;;20.20;55.70;;;;;;5034283;28;957;-73
2022/02/20 12:20:49;;;;;;;;;;;20.20;55.80;;;;;;5030522;28;2658;-75
2022/02/20 12:23:27;;;;;;;;;;;20.20;55.80;;;;;;5032930;28;1296;-75
2022/02/20 12:25:53;;;;;;;;;;;20.20;55.80;;;;;;5016649;28;1271;-75
2022/02/20 12:28:40;;;;;;;;;;;20.20;55.80;;;;;;5033674;28;1289;-75
2022/02/20 12:31:15;;;;;;;;;;;20.20;55.90;;;;;;5033556;28;1947;-74
2022/02/20 12:33:45;;;;;;;;;;;20.20;55.90;;;;;;5034070;28;867;-75
2022/02/20 12:36:10;;;;;;;;;;;20.20;55.90;;;;;;5039421;28;1028;-74
2022/02/20 12:38:36;;;;;;;;;;;20.20;55.90;;;;;;5040396;28;1224;-74
2022/02/20 12:41:05;;;;;;;;;;;20.20;55.90;;;;;;5041483;28;1092;-75
2022/02/20 12:43:31;;;;;;;;;;;20.10;55.90;;;;;;5052390;28;769;-74
2022/02/20 12:45:56;;;;;;;;;;;20.10;55.90;;;;;;5033729;28;1384;-76
2022/02/20 12:48:22;;;;;;;;;;;20.10;56.00;;;;;;5027523;28;1271;-75
2022/02/20 12:50:48;;;;;;;;;;;20.10;56.00;;;;;;5018164;28;1902;-75
2022/02/20 12:53:13;;;;;;;;;;;20.10;56.10;;;;;;5014097;28;1145;-75
2022/02/20 12:55:40;;;;;;;;;;;20.10;56.10;;;;;;5026471;28;1585;-75
2022/02/20 12:58:07;;;;;;;;;;;20.00;56.10;;;;;;5033700;28;1306;-75
2022/02/20 13:00:33;;;;;;;;;;;20.00;56.20;;;;;;5033525;28;1300;-73
2022/02/20 13:02:59;;;;;;;;;;;20.00;56.20;;;;;;5033692;28;876;-74
2022/02/20 13:05:31;;;;;;;;;;;20.00;56.30;;;;;;5035056;28;895;-74
2022/02/20 13:08:00;;;;;;;;;;;20.00;56.30;;;;;;5034720;28;935;-74
2022/02/20 13:10:26;;;;;;;;;;;20.00;56.40;;;;;;5032929;28;1910;-74
2022/02/20 13:13:10;;;;;;;;;;;19.90;56.30;;;;;;5034387;28;1262;-75
2022/02/20 13:15:47;;;;;;;;;;;19.90;56.30;;;;;;5035869;28;1064;-74
2022/02/20 13:18:16;;;;;;;;;;;19.90;56.30;;;;;;5033434;28;796;-77
2022/02/20 13:20:45;;;;;;;;;;;19.90;56.30;;;;;;5033228;28;2266;-74
2022/02/20 13:23:12;;;;;;;;;;;19.90;56.30;;;;;;5053540;28;862;-74
2022/02/20 13:25:38;;;;;;;;;;;19.90;56.30;;;;;;5035706;28;1383;-75
2022/02/20 13:28:03;;;;;;;;;;;19.90;56.40;;;;;;5027607;28;1340;-75
2022/02/20 13:30:29;;;;;;;;;;;19.90;56.40;;;;;;5026404;28;2471;-76
2022/02/20 13:32:55;;;;;;;;;;;19.90;56.40;;;;;;5030053;28;1647;-75
2022/02/20 13:35:33;;;;;;;;;;;19.90;56.40;;;;;;5036818;28;1519;-76
2022/02/20 13:37:58;;;;;;;;;;;19.90;56.40;;;;;;5029914;28;1936;-75
2022/02/20 13:40:24;;;;;;;;;;;19.90;56.40;;;;;;5033480;28;1325;-77
2022/02/20 13:43:00;;;;;;;;;;;19.90;56.40;;;;;;5042529;28;1766;-75
2022/02/20 13:45:25;;;;;;;;;;;19.90;56.40;;;;;;5038409;28;1414;-77
2022/02/20 13:47:51;;;;;;;;;;;19.90;56.50;;;;;;5032472;28;1615;-76
2022/02/20 13:50:19;;;;;;;;;;;19.90;56.50;;;;;;5043866;28;1475;-77
2022/02/20 13:52:45;;;;;;;;;;;19.80;56.50;;;;;;5044920;28;1650;-77
2022/02/20 13:55:25;;;;;;;;;;;19.90;56.50;;;;;;5042687;28;1431;-75
2022/02/20 13:57:51;;;;;;;;;;;19.90;56.50;;;;;;5029415;28;1873;-77
2022/02/20 14:00:17;;;;;;;;;;;19.90;56.60;;;;;;5043605;23;3564;-70
2022/02/20 14:02:43;;;;;;;;;;;19.80;56.60;;;;;;5047452;28;1481;-66
2022/02/20 14:05:16;;;;;;;;;;;19.80;56.60;;;;;;5048075;28;1699;-70
2022/02/20 14:07:42;;;;;;;;;;;19.80;56.60;;;;;;5050993;28;1180;-67
2022/02/20 14:10:09;;;;;;;;;;;19.80;56.60;;;;;;5037241;28;1413;-71
2022/02/20 14:12:39;;;;;;;;;;;19.80;56.60;;;;;;5041257;28;2415;-68
2022/02/20 14:15:11;;;;;;;;;;;19.80;56.60;;;;;;5043256;28;1400;-70
2022/02/20 14:17:52;;;;;;;;;;;19.80;56.60;;;;;;5020382;28;1372;-67
2022/02/20 14:20:28;;;;;;;;;;;19.80;56.70;;;;;;5011277;28;1229;-67
2022/02/20 14:22:54;;;;;;;;;;;19.80;56.70;;;;;;5025887;28;1783;-67
2022/02/20 14:25:20;;;;;;;;;;;19.80;56.70;;;;;;5032753;28;1343;-67
2022/02/20 14:27:49;;;;;;;;;;;19.80;56.70;;;;;;5028347;28;1514;-67